Time;durP1;ratioP1;P1;durP2;ratioP2;P2;SDS_P1;SDS_P2;PMS_P1;PMS_P2;Temp;Humidity;BMP_temperature;BMP_pressure;BME280_temperature;BME280_humidity;BME280_pressure;Samples;Min_cycle;Max_cycle;Signal;HPM_P1;HPM_P2
2021/11/25 00:00:39;;;;;;;68.03;32.13;;;;;;;5.34;81.21;101525.41;5044705;28;20024;-71
2021/11/25 00:03:05;;;;;;;54.40;24.50;;;;;;;5.41;80.56;101516.66;5045505;28;20033;-72
2021/11/25 00:05:30;;;;;;;62.92;30.30;;;;;;;5.40;79.95;101517.56;5044438;28;20071;-71
2021/11/25 00:07:56;;;;;;;56.88;27.58;;;;;;;5.41;80.02;101516.66;5044515;28;20060;-71
2021/11/25 00:10:21;;;;;;;55.85;25.30;;;;;;;5.44;79.47;101516.66;5044034;28;20037;-70
2021/11/25 00:12:46;;;;;;;50.85;23.58;;;;;;;5.41;79.43;101514.94;5030373;28;20029;-71
2021/11/25 00:15:12;;;;;;;61.47;27.08;;;;;;;5.40;79.21;101512.34;5048027;28;20051;-71
2021/11/25 00:17:38;;;;;;;59.72;28.23;;;;;;;5.38;79.14;101506.22;5032013;28;20171;-71
2021/11/25 00:20:09;;;;;;;54.33;25.33;;;;;;;5.34;79.50;101502.75;5030455;28;20013;-71
2021/11/25 00:22:34;;;;;;;64.22;29.02;;;;;;;5.35;79.10;101499.25;5048422;28;20316;-71
2021/11/25 00:25:00;;;;;;;70.28;32.05;;;;;;;5.36;79.09;101500.16;5048602;28;20477;-70
2021/11/25 00:27:25;;;;;;;68.35;32.20;;;;;;;5.39;79.21;101489.69;5048761;28;20480;-71
2021/11/25 00:29:51;;;;;;;72.38;33.88;;;;;;;5.36;79.59;101492.31;5047944;28;20162;-71
2021/11/25 00:32:16;;;;;;;70.78;31.52;;;;;;;5.35;79.55;101495.78;5047502;28;20100;-71
2021/11/25 00:34:41;;;;;;;67.63;27.02;;;;;;;5.37;79.75;101494.03;5049172;28;20033;-71
2021/11/25 00:37:07;;;;;;;58.55;25.30;;;;;;;5.39;79.68;101485.31;5047577;28;20487;-72
2021/11/25 00:39:32;;;;;;;59.58;25.98;;;;;;;5.38;79.78;101485.31;5044821;28;20476;-71
2021/11/25 00:41:57;;;;;;;65.82;30.75;;;;;;;5.37;79.78;101479.22;5048598;28;20021;-70
2021/11/25 00:44:22;;;;;;;65.40;26.98;;;;;;;5.39;79.56;101487.94;5048974;28;20021;-71
2021/11/25 00:46:48;;;;;;;71.47;32.75;;;;;;;5.36;79.63;101481.84;5048075;28;20032;-72
2021/11/25 00:49:13;;;;;;;62.45;26.52;;;;;;;5.33;79.33;101482.72;5048562;28;20021;-70
2021/11/25 00:51:39;;;;;;;55.72;23.70;;;;;;;5.31;79.56;101480.13;5046481;28;20021;-70
2021/11/25 00:54:04;;;;;;;84.40;34.30;;;;;;;5.30;79.62;101478.34;5040752;28;20509;-72
2021/11/25 00:56:29;;;;;;;68.47;29.33;;;;;;;5.36;79.28;101474.00;5047536;28;20116;-71
2021/11/25 00:58:55;;;;;;;63.60;25.63;;;;;;;5.36;79.19;101466.16;5046869;28;20096;-71
2021/11/25 01:01:20;;;;;;;71.75;31.02;;;;;;;5.32;79.11;101465.28;5048652;28;20033;-71
2021/11/25 01:03:45;;;;;;;62.22;29.48;;;;;;;5.29;79.48;101471.41;5047054;28;20025;-72
2021/11/25 01:06:11;;;;;;;66.88;29.65;;;;;;;5.26;79.70;101470.53;5048589;28;20072;-71
2021/11/25 01:08:36;;;;;;;72.93;31.95;;;;;;;5.30;79.34;101467.91;5046926;28;20029;-71
2021/11/25 01:11:04;;;;;;;61.30;26.33;;;;;;;5.30;79.69;101477.50;5028296;28;20029;-71
2021/11/25 01:13:29;;;;;;;65.85;29.42;;;;;;;5.36;79.00;101471.41;5027042;28;20507;-71
2021/11/25 01:15:54;;;;;;;63.88;27.27;;;;;;;5.36;78.96;101476.63;5027102;28;20025;-71
2021/11/25 01:18:20;;;;;;;69.07;28.42;;;;;;;5.35;78.89;101469.63;5027426;28;20028;-71
2021/11/25 01:20:48;;;;;;;51.38;23.40;;;;;;;5.34;79.01;101457.44;5041653;28;20178;-71
2021/11/25 01:23:16;;;;;;;61.83;26.60;;;;;;;5.38;78.68;101464.41;5028347;28;20185;-72
2021/11/25 01:25:41;;;;;;;63.22;29.00;;;;;;;5.41;78.29;101467.91;5047276;28;20025;-71
2021/11/25 01:28:12;;;;;;;73.68;33.00;;;;;;;5.36;78.47;101464.41;5047069;28;20028;-71
2021/11/25 01:30:45;;;;;;;63.90;27.95;;;;;;;5.30;78.57;101467.91;5035633;28;20037;-70
2021/11/25 01:33:11;;;;;;;82.93;34.72;;;;;;;5.31;78.61;101459.22;5028297;28;20029;-71
2021/11/25 01:35:37;;;;;;;69.28;28.40;;;;;;;5.35;78.70;101460.06;5036723;28;20387;-70
2021/11/25 01:38:04;;;;;;;70.82;31.00;;;;;;;5.40;78.40;101460.06;5046509;28;20047;-71
2021/11/25 01:40:29;;;;;;;65.82;28.35;;;;;;;5.35;78.46;101464.41;5028821;28;20029;-71
2021/11/25 01:42:55;;;;;;;74.07;32.22;;;;;;;5.29;78.78;101460.94;5046368;28;20040;-70
2021/11/25 01:45:24;;;;;;;78.63;33.53;;;;;;;5.30;78.44;101462.69;5034368;28;20502;-71
2021/11/25 01:47:50;;;;;;;81.82;34.60;;;;;;;5.28;78.51;101459.22;5037856;28;20033;-70
2021/11/25 01:50:17;;;;;;;79.78;31.90;;;;;;;5.27;78.43;101447.00;5027446;28;20033;-71
2021/11/25 01:52:42;;;;;;;83.80;35.15;;;;;;;5.24;78.73;101433.09;5047354;28;20036;-70
2021/11/25 01:55:08;;;;;;;67.25;29.60;;;;;;;5.26;78.03;101429.59;5046412;28;20032;-70
2021/11/25 01:57:34;;;;;;;78.32;34.70;;;;;;;5.22;78.10;101433.09;5028320;28;20657;-70
2021/11/25 01:59:59;;;;;;;63.67;28.33;;;;;;;5.26;78.11;101437.44;5046253;28;20108;-71
2021/11/25 02:02:25;;;;;;;67.82;28.35;;;;;;;5.20;77.63;101433.97;5034073;28;20108;-70
2021/11/25 02:04:50;;;;;;;68.50;30.90;;;;;;;5.23;77.16;101428.72;5029795;22;20051;-71
2021/11/25 02:07:17;;;;;;;67.32;31.42;;;;;;;5.26;76.76;101421.75;5044568;28;20081;-72
2021/11/25 02:09:43;;;;;;;64.40;28.98;;;;;;;5.30;76.24;101415.63;5047186;28;20021;-71
2021/11/25 02:12:08;;;;;;;58.22;25.13;;;;;;;5.30;76.13;101423.47;5045983;28;20383;-70
2021/11/25 02:14:33;;;;;;;67.97;29.25;;;;;;;5.30;75.99;101415.63;5045389;28;20694;-72
2021/11/25 02:16:59;;;;;;;54.20;26.20;;;;;;;5.26;76.15;101413.91;5042390;28;20029;-72
2021/11/25 02:19:25;;;;;;;57.28;28.00;;;;;;;5.22;76.27;101409.56;5047199;28;20111;-70
2021/11/25 02:21:50;;;;;;;61.65;26.88;;;;;;;5.28;75.19;101404.34;5044074;28;20088;-70
2021/11/25 02:24:16;;;;;;;54.60;24.95;;;;;;;5.28;75.29;101414.78;5046031;28;20033;-70
2021/11/25 02:26:41;;;;;;;55.60;26.70;;;;;;;5.37;74.19;101407.78;5046907;28;20098;-71
2021/11/25 02:29:06;;;;;;;58.78;27.30;;;;;;;5.38;74.23;101412.13;5046032;28;20167;-72
2021/11/25 02:31:32;;;;;;;54.25;24.92;;;;;;;5.38;73.81;101409.53;5046830;28;20062;-71
2021/11/25 02:33:57;;;;;;;58.58;28.40;;;;;;;5.40;73.98;101405.16;5044309;28;20106;-71
2021/11/25 02:36:24;;;;;;;64.25;29.95;;;;;;;5.43;73.89;101407.78;5046832;28;20036;-72
2021/11/25 02:38:50;;;;;;;51.65;27.02;;;;;;;5.38;73.94;101393.84;5046465;28;20017;-71
2021/11/25 02:41:15;;;;;;;59.28;26.20;;;;;;;5.36;74.27;101387.75;5047963;28;20039;-71
2021/11/25 02:43:41;;;;;;;53.83;24.52;;;;;;;5.35;74.47;101383.38;5044345;28;20036;-72
2021/11/25 02:46:08;;;;;;;45.47;21.58;;;;;;;5.37;74.58;101385.16;5037487;28;20033;-71
2021/11/25 02:48:39;;;;;;;57.05;26.70;;;;;;;5.37;74.69;101395.59;5033614;28;20394;-70
2021/11/25 02:51:05;;;;;;;65.95;31.27;;;;;;;5.28;76.12;101386.06;5044553;28;20068;-71
2021/11/25 02:53:34;;;;;;;53.33;27.13;;;;;;;5.23;76.21;101389.53;5045369;28;20114;-71
2021/11/25 02:56:03;;;;;;;69.53;28.65;;;;;;;5.20;76.46;101381.72;5046211;28;20102;-71
2021/11/25 02:58:29;;;;;;;64.80;30.02;;;;;;;5.25;76.51;101380.84;5045195;28;20360;-71
2021/11/25 03:00:56;;;;;;;61.35;27.48;;;;;;;5.18;77.27;101379.13;5030314;28;20037;-70
2021/11/25 03:03:22;;;;;;;74.70;34.17;;;;;;;5.16;77.67;101380.84;5028186;28;20044;-70
2021/11/25 03:05:49;;;;;;;69.75;33.47;;;;;;;5.11;78.25;101382.59;5037017;28;20049;-70
2021/11/25 03:08:16;;;;;;;67.13;31.48;;;;;;;5.13;78.00;101384.34;5025684;28;20029;-68
2021/11/25 03:10:45;;;;;;;60.72;28.63;;;;;;;5.15;78.47;101369.50;5047446;28;20037;-69
2021/11/25 03:13:13;;;;;;;53.15;26.15;;;;;;;5.15;78.53;101368.66;5046222;28;20029;-70
2021/11/25 03:15:38;;;;;;;63.95;32.22;;;;;;;5.11;78.99;101372.13;5045951;28;20498;-71
2021/11/25 03:18:05;;;;;;;68.75;30.20;;;;;;;5.06;79.46;101372.19;5045038;28;20033;-71
2021/11/25 03:20:30;;;;;;;76.60;34.35;;;;;;;4.99;80.38;101373.91;5044193;28;20029;-70
2021/11/25 03:22:56;;;;;;;79.40;33.80;;;;;;;5.02;80.57;101370.41;5043222;28;20151;-71
2021/11/25 03:25:22;;;;;;;76.35;32.42;;;;;;;5.01;80.19;101372.19;5042812;28;20035;-70
2021/11/25 03:27:48;;;;;;;79.22;37.15;;;;;;;5.01;80.54;101369.56;5045119;28;20087;-71
2021/11/25 03:30:13;;;;;;;60.58;24.83;;;;;;;5.03;80.34;101369.56;5043890;28;20155;-72
2021/11/25 03:32:39;;;;;;;89.53;39.42;;;;;;;4.91;81.73;101363.47;5046244;28;20493;-71
2021/11/25 03:35:04;;;;;;;82.03;38.95;;;;;;;4.85;81.86;101357.41;5044003;28;20103;-71
2021/11/25 03:37:30;;;;;;;69.00;31.65;;;;;;;4.88;81.71;101349.56;5045636;28;20032;-70
2021/11/25 03:39:55;;;;;;;80.05;37.15;;;;;;;4.82;81.48;101354.81;5045070;28;20017;-70
2021/11/25 03:42:20;;;;;;;80.47;37.33;;;;;;;4.83;81.46;101353.91;5046573;28;20107;-69
2021/11/25 03:44:46;;;;;;;83.72;37.63;;;;;;;4.80;81.82;101352.19;5044260;28;20071;-72
2021/11/25 03:47:12;;;;;;;67.00;28.48;;;;;;;4.84;81.63;101348.69;5047155;28;20043;-71
2021/11/25 03:49:38;;;;;;;75.40;33.40;;;;;;;4.85;81.36;101347.81;5042953;28;20048;-70
2021/11/25 03:52:04;;;;;;;72.20;32.50;;;;;;;4.83;81.00;101352.19;5045915;28;20618;-71
2021/11/25 03:54:29;;;;;;;91.05;40.10;;;;;;;4.77;82.13;101345.25;5049560;28;20120;-70
2021/11/25 03:56:55;;;;;;;78.90;36.95;;;;;;;4.74;81.61;101350.47;5036211;28;20030;-71
2021/11/25 03:59:20;;;;;;;83.68;39.30;;;;;;;4.72;81.60;101336.53;5036362;28;20072;-71
2021/11/25 04:01:45;;;;;;;83.25;38.55;;;;;;;4.70;81.79;101338.28;5043282;28;20078;-71
2021/11/25 04:04:11;;;;;;;81.03;36.15;;;;;;;4.69;81.71;101333.91;5036231;28;20514;-69
2021/11/25 04:06:36;;;;;;;61.63;30.60;;;;;;;4.70;81.39;101337.41;5038141;28;20459;-69
2021/11/25 04:09:03;;;;;;;72.53;33.58;;;;;;;4.70;81.49;101330.47;5048911;28;20029;-71
2021/11/25 04:11:28;;;;;;;74.47;32.67;;;;;;;4.71;81.52;101326.97;5048778;28;20395;-69
2021/11/25 04:13:53;;;;;;;63.60;28.92;;;;;;;4.66;82.01;101329.56;5047772;28;20025;-71
2021/11/25 04:16:19;;;;;;;67.57;27.00;;;;;;;4.64;82.25;101327.84;5047032;28;20028;-70
2021/11/25 04:18:44;;;;;;;70.78;31.73;;;;;;;4.66;81.99;101326.09;5047315;28;20028;-68
2021/11/25 04:21:09;;;;;;;72.95;33.55;;;;;;;4.63;82.12;101323.47;5038371;28;20121;-67
2021/11/25 04:23:35;;;;;;;89.05;40.25;;;;;;;4.58;82.25;101323.50;5048530;28;20061;-70
2021/11/25 04:26:00;;;;;;;78.75;37.05;;;;;;;4.57;82.03;101324.38;5036282;28;20566;-71
2021/11/25 04:28:26;;;;;;;73.60;34.30;;;;;;;4.53;82.05;101320.91;5045914;28;20086;-70
2021/11/25 04:35:28;;;;;;;81.82;36.55;;;;;;;4.44;82.64;101326.13;5044973;28;20036;-71
2021/11/25 04:36:32;;;;;;;96.32;42.25;;;;;;;4.36;83.10;101314.84;5048553;28;20044;-71
2021/11/25 04:38:58;;;;;;;69.30;30.02;;;;;;;4.37;83.23;101316.56;5046673;28;20024;-71
2021/11/25 04:41:24;;;;;;;73.78;33.17;;;;;;;4.40;83.18;101316.56;5048411;28;20037;-69
2021/11/25 04:43:49;;;;;;;77.30;33.75;;;;;;;4.38;82.93;101313.06;5046900;28;20040;-70
2021/11/25 04:46:14;;;;;;;72.18;31.25;;;;;;;4.35;83.07;101316.56;5047985;28;20075;-70
2021/11/25 04:48:40;;;;;;;70.95;30.17;;;;;;;4.34;83.09;101313.94;5047123;28;20498;-72
2021/11/25 04:51:05;;;;;;;68.28;30.92;;;;;;;4.28;83.62;101322.66;5045450;28;20037;-71
2021/11/25 04:53:31;;;;;;;61.58;25.70;;;;;;;4.21;83.80;101318.31;5043414;28;20036;-71
2021/11/25 04:55:56;;;;;;;75.95;30.92;;;;;;;4.18;83.76;101313.94;5048443;28;20028;-72
2021/11/25 04:58:21;;;;;;;76.25;31.48;;;;;;;4.11;84.28;101315.69;5049116;28;20494;-71
2021/11/25 05:00:47;;;;;;;94.07;37.90;;;;;;;4.03;84.25;101301.75;5049534;28;20025;-72
2021/11/25 05:03:13;;;;;;;76.57;30.42;;;;;;;3.98;84.39;101303.50;5049154;28;20029;-71
2021/11/25 05:05:39;;;;;;;86.13;31.55;;;;;;;3.95;84.79;101295.66;5044842;28;20059;-70
2021/11/25 05:08:04;;;;;;;76.03;27.60;;;;;;;3.90;85.00;101300.88;5037629;28;20106;-70
2021/11/25 05:10:30;;;;;;;99.43;39.13;;;;;;;3.94;85.20;101297.41;5048583;28;20246;-71
2021/11/25 05:12:56;;;;;;;90.35;35.45;;;;;;;4.01;85.44;101299.13;5047632;28;20104;-71
2021/11/25 05:15:21;;;;;;;106.90;43.75;;;;;;;4.07;85.10;101302.63;5048558;28;20095;-70
2021/11/25 05:17:47;;;;;;;100.63;37.40;;;;;;;4.11;85.22;101299.16;5048042;28;20113;-71
2021/11/25 05:20:14;;;;;;;75.93;30.02;;;;;;;4.16;85.13;101298.28;5044844;28;20055;-71
2021/11/25 05:22:40;;;;;;;95.32;41.92;;;;;;;4.22;84.91;101300.03;5048248;28;20033;-72
2021/11/25 05:25:07;;;;;;;95.38;39.33;;;;;;;4.30;84.69;101300.91;5047361;28;20043;-71
2021/11/25 05:27:33;;;;;;;95.72;39.53;;;;;;;4.35;84.60;101289.59;5046788;28;20029;-71
2021/11/25 05:29:58;;;;;;;89.90;35.22;;;;;;;4.45;84.29;101290.47;5045954;28;20078;-70
2021/11/25 05:32:23;;;;;;;77.40;32.70;;;;;;;4.49;83.88;101294.81;5046969;28;20025;-71
2021/11/25 05:34:49;;;;;;;73.65;31.63;;;;;;;4.46;84.00;101298.28;5048666;28;20071;-71
2021/11/25 05:37:15;;;;;;;68.82;29.95;;;;;;;4.48;83.97;101291.31;5045498;28;20020;-69
2021/11/25 05:39:40;;;;;;;70.57;28.52;;;;;;;4.51;83.62;101293.94;5041984;28;20479;-72
2021/11/25 05:42:07;;;;;;;82.55;30.92;;;;;;;4.53;83.60;101297.41;5029579;28;20025;-70
2021/11/25 05:44:32;;;;;;;103.07;40.75;;;;;;;4.39;83.88;101294.81;5039747;28;20163;-71
2021/11/25 05:46:57;;;;;;;79.55;30.77;;;;;;;4.34;83.84;101290.47;5033097;28;20026;-70
2021/11/25 05:49:22;;;;;;;78.18;30.95;;;;;;;4.25;84.27;101281.75;5039077;28;20040;-70
2021/11/25 05:51:48;;;;;;;96.15;34.88;;;;;;;4.21;84.70;101280.03;5028954;28;20039;-71
2021/11/25 05:54:13;;;;;;;86.22;31.15;;;;;;;4.17;85.03;101283.50;5039830;28;20061;-71
2021/11/25 05:56:38;;;;;;;104.82;36.90;;;;;;;4.17;85.30;101291.34;5021084;28;20109;-72
2021/11/25 05:59:04;;;;;;;109.97;40.95;;;;;;;4.22;85.54;101293.94;5047999;28;20033;-70
2021/11/25 06:01:30;;;;;;;96.15;35.42;;;;;;;4.26;85.44;101290.47;5045748;28;20600;-71
2021/11/25 06:03:55;;;;;;;91.22;35.10;;;;;;;4.34;84.84;101285.25;5040917;28;20395;-71
2021/11/25 06:06:21;;;;;;;91.95;34.22;;;;;;;4.35;85.19;101289.59;5046988;28;20080;-71
2021/11/25 06:08:47;;;;;;;81.32;30.63;;;;;;;4.37;85.22;101287.84;5045674;28;20032;-70
2021/11/25 06:11:12;;;;;;;90.22;33.83;;;;;;;4.41;85.17;101287.84;5045734;28;20037;-70
2021/11/25 06:13:38;;;;;;;93.07;33.15;;;;;;;4.47;84.76;101280.88;5046429;28;20078;-71
2021/11/25 06:16:04;;;;;;;98.28;36.90;;;;;;;4.54;84.51;101283.47;5046225;28;20219;-70
2021/11/25 06:18:30;;;;;;;92.00;37.80;;;;;;;4.57;84.31;101273.91;5027152;28;20038;-71
2021/11/25 06:20:55;;;;;;;94.72;37.35;;;;;;;4.61;84.38;101268.66;5026822;28;20111;-72
2021/11/25 06:23:21;;;;;;;89.50;34.67;;;;;;;4.61;84.19;101267.81;5042090;28;20024;-71
2021/11/25 06:25:46;;;;;;;91.88;32.10;;;;;;;4.60;84.09;101261.72;5028113;28;20030;-72
2021/11/25 06:28:12;;;;;;;87.40;32.38;;;;;;;4.59;84.25;101266.94;5036142;28;20554;-71
2021/11/25 06:30:37;;;;;;;113.05;41.15;;;;;;;4.53;84.32;101265.22;5026486;28;20045;-71
2021/11/25 06:33:03;;;;;;;91.25;36.42;;;;;;;4.53;84.52;101263.47;5035999;28;20029;-70
2021/11/25 06:35:28;;;;;;;92.10;36.47;;;;;;;4.48;84.71;101267.81;5038917;28;20533;-70
2021/11/25 06:37:54;;;;;;;91.75;33.92;;;;;;;4.47;84.88;101265.22;5033311;28;20479;-72
2021/11/25 06:40:25;;;;;;;98.90;35.45;;;;;;;4.50;85.05;101260.88;5029634;28;20052;-71
2021/11/25 06:42:52;;;;;;;97.60;35.30;;;;;;;4.47;85.15;101260.88;5045283;28;20021;-71
2021/11/25 06:45:18;;;;;;;90.35;32.67;;;;;;;4.43;85.50;101261.75;5046504;28;20052;-69
2021/11/25 06:47:46;;;;;;;92.82;34.30;;;;;;;4.48;85.58;101266.97;5041140;28;20068;-71
2021/11/25 06:50:12;;;;;;;105.90;37.60;;;;;;;4.49;85.55;101259.13;5046886;28;20029;-71
2021/11/25 06:52:38;;;;;;;103.90;34.85;;;;;;;4.55;85.45;101259.13;5038847;28;20537;-70
2021/11/25 06:55:05;;;;;;;104.35;37.92;;;;;;;4.59;85.39;101256.50;5043511;28;20027;-71
2021/11/25 06:57:30;;;;;;;100.03;34.92;;;;;;;4.63;85.21;101259.09;5046724;28;20112;-71
2021/11/25 06:59:55;;;;;;;85.47;32.33;;;;;;;4.67;85.15;101262.59;5045933;28;20116;-71
2021/11/25 07:02:20;;;;;;;93.00;34.85;;;;;;;4.70;85.13;101254.75;5046162;28;20108;-71
2021/11/25 07:04:46;;;;;;;84.80;33.38;;;;;;;4.72;85.03;101255.59;5045646;28;20071;-71
2021/11/25 07:07:11;;;;;;;90.18;32.53;;;;;;;4.72;85.06;101260.81;5046400;28;20604;-71
2021/11/25 07:09:37;;;;;;;77.00;29.77;;;;;;;4.76;85.30;101262.53;5044530;28;20475;-72
2021/11/25 07:12:03;;;;;;;81.93;29.85;;;;;;;4.79;85.17;101259.91;5028141;28;20017;-72
2021/11/25 07:14:28;;;;;;;97.43;33.13;;;;;;;4.82;85.07;101255.56;5044660;28;20482;-71
2021/11/25 07:16:54;;;;;;;89.57;33.15;;;;;;;4.87;85.07;101251.19;5048239;28;20048;-76
2021/11/25 07:19:19;;;;;;;93.32;34.83;;;;;;;4.90;84.93;101259.91;5039468;28;20475;-64
2021/11/25 07:21:44;;;;;;;117.00;42.88;;;;;;;4.91;84.95;101253.78;5042080;28;20399;-71
2021/11/25 07:24:10;;;;;;;98.78;36.05;;;;;;;4.98;84.80;101252.03;5050314;28;20025;-72
2021/11/25 07:26:35;;;;;;;110.18;44.95;;;;;;;4.98;84.98;101262.50;5050957;28;20009;-74
2021/11/25 07:29:00;;;;;;;74.40;27.92;;;;;;;5.03;84.95;101258.09;5045210;28;20025;-71
2021/11/25 07:31:28;;;;;;;82.85;29.52;;;;;;;5.08;84.70;101263.31;5049696;28;20024;-73
2021/11/25 07:33:55;;;;;;;102.47;41.13;;;;;;;5.13;84.65;101258.06;5045548;28;20037;-75
2021/11/25 07:36:21;;;;;;;96.72;34.85;;;;;;;5.12;84.74;101261.56;5049851;28;20099;-75
2021/11/25 07:38:46;;;;;;;81.18;30.42;;;;;;;5.20;84.70;101266.75;5052208;28;20052;-75
2021/11/25 07:41:11;;;;;;;104.93;41.72;;;;;;;5.25;84.62;101271.09;5051903;28;20013;-76
2021/11/25 07:43:37;;;;;;;103.57;40.35;;;;;;;5.31;84.38;101265.84;5052018;28;20067;-75
2021/11/25 07:46:02;;;;;;;81.97;31.00;;;;;;;5.36;84.36;101264.94;5047634;28;20024;-78
2021/11/25 07:48:28;;;;;;;91.75;33.20;;;;;;;5.36;84.48;101263.16;5043853;28;20029;-76
2021/11/25 07:50:53;;;;;;;68.15;27.13;;;;;;;5.36;84.68;101267.56;5048739;28;20033;-75
2021/11/25 07:53:19;;;;;;;100.18;42.28;;;;;;;5.37;84.66;101266.66;5044495;28;20025;-75
2021/11/25 07:55:44;;;;;;;87.60;34.85;;;;;;;5.41;84.77;101261.41;5032024;28;20096;-75
2021/11/25 07:58:09;;;;;;;103.63;40.22;;;;;;;5.41;84.82;101261.41;5041390;28;21021;-69
2021/11/25 08:00:35;;;;;;;97.22;35.65;;;;;;;5.46;85.00;101261.41;5040073;28;20049;-71
2021/11/25 08:03:00;;;;;;;79.20;29.50;;;;;;;5.59;84.68;101272.63;5042491;28;20151;-70
2021/11/25 08:05:27;;;;;;;65.53;23.67;;;;;;;5.66;84.66;101270.88;5034692;28;20715;-70
2021/11/25 08:07:56;;;;;;;70.65;27.55;;;;;;;5.70;85.04;101267.34;5036709;28;20039;-69
2021/11/25 08:10:23;;;;;;;57.72;21.02;;;;;;;5.84;84.84;101266.38;5040399;28;20021;-70
2021/11/25 08:12:48;;;;;;;45.03;15.43;;;;;;;5.95;84.58;101280.25;5037299;28;20328;-68
2021/11/25 08:15:14;;;;;;;30.10;13.07;;;;;;;6.05;84.15;101274.09;5037840;28;20504;-69
2021/11/25 08:17:40;;;;;;;28.77;11.55;;;;;;;6.12;84.06;101274.03;5041982;28;20438;-69
2021/11/25 08:20:06;;;;;;;23.75;10.07;;;;;;;6.17;83.89;101267.88;5019023;28;20072;-67
2021/11/25 08:22:32;;;;;;;20.73;8.98;;;;;;;6.24;83.80;101268.72;5036849;28;20049;-68
2021/11/25 08:24:57;;;;;;;21.05;8.82;;;;;;;6.26;83.79;101269.56;5045182;28;20075;-66
2021/11/25 08:27:22;;;;;;;21.48;8.52;;;;;;;6.32;83.61;101274.75;5048816;28;20170;-67
2021/11/25 08:29:48;;;;;;;17.50;7.88;;;;;;;6.35;83.65;101268.59;5045981;28;20029;-68
2021/11/25 08:32:13;;;;;;;25.90;12.05;;;;;;;6.37;83.65;101273.81;5048582;28;20431;-67
2021/11/25 08:34:39;;;;;;;39.75;17.63;;;;;;;6.38;83.77;101278.19;5049291;28;20410;-67
2021/11/25 08:37:05;;;;;;;37.55;16.92;;;;;;;6.37;83.68;101273.81;5048773;28;20033;-68
2021/11/25 08:39:31;;;;;;;43.97;19.15;;;;;;;6.37;83.98;101279.06;5049542;28;20021;-69
2021/11/25 08:41:56;;;;;;;33.80;14.95;;;;;;;6.44;83.77;101275.50;5049298;28;20028;-70
2021/11/25 08:44:22;;;;;;;42.95;18.08;;;;;;;6.42;83.69;101279.91;5049649;28;20014;-70
2021/11/25 08:46:47;;;;;;;32.53;15.80;;;;;;;6.47;83.78;101275.47;5049407;28;20013;-68
2021/11/25 08:49:13;;;;;;;35.42;16.67;;;;;;;6.47;83.82;101283.31;5049578;28;20036;-69
2021/11/25 08:51:38;;;;;;;38.92;16.27;;;;;;;6.49;83.90;101283.31;5044652;28;20040;-67
2021/11/25 08:54:04;;;;;;;34.35;14.93;;;;;;;6.56;83.75;101278.00;5046365;28;20115;-68
2021/11/25 08:56:29;;;;;;;31.17;14.70;;;;;;;6.58;83.83;101278.00;5050022;28;20029;-68
2021/11/25 08:58:55;;;;;;;42.85;14.30;;;;;;;6.59;83.99;101276.25;5039334;28;20029;-68
2021/11/25 09:01:21;;;;;;;37.33;14.15;;;;;;;6.50;84.42;101280.69;5041357;28;20078;-68
2021/11/25 09:03:46;;;;;;;30.20;11.00;;;;;;;6.53;84.34;101271.94;5043892;28;20026;-68
2021/11/25 09:06:11;;;;;;;19.80;9.60;;;;;;;6.60;84.34;101276.22;5027858;28;20048;-68
2021/11/25 09:08:37;;;;;;;23.13;8.43;;;;;;;6.66;84.08;101275.28;5038505;28;20051;-67
2021/11/25 09:11:02;;;;;;;25.00;10.02;;;;;;;6.67;83.95;101279.63;5036075;28;20100;-69
2021/11/25 09:13:28;;;;;;;18.77;7.70;;;;;;;6.73;83.75;101281.31;5044339;28;20027;-69
2021/11/25 09:15:53;;;;;;;23.65;8.73;;;;;;;6.74;83.72;101288.31;5045239;28;20479;-68
2021/11/25 09:18:19;;;;;;;16.90;6.00;;;;;;;6.82;83.69;101282.09;5048143;28;20494;-67
2021/11/25 09:20:45;;;;;;;21.73;8.13;;;;;;;6.82;83.44;101273.38;5046509;28;20028;-68
2021/11/25 09:23:16;;;;;;;15.00;4.85;;;;;;;6.89;83.36;101279.44;5047082;28;20021;-69
2021/11/25 09:25:43;;;;;;;16.25;6.18;;;;;;;6.90;83.33;101281.16;5046173;28;20025;-68
2021/11/25 09:28:11;;;;;;;12.77;5.93;;;;;;;6.91;83.23;101283.75;5046471;28;20575;-68
2021/11/25 09:30:37;;;;;;;16.42;6.40;;;;;;;6.92;83.35;101279.38;5046353;28;20483;-68
2021/11/25 09:33:02;;;;;;;19.73;6.22;;;;;;;6.93;83.24;101287.19;5047050;28;20040;-68
2021/11/25 09:35:28;;;;;;;11.35;5.22;;;;;;;7.00;83.18;101290.63;5047572;28;20650;-69
2021/11/25 09:37:53;;;;;;;18.50;5.90;;;;;;;7.03;83.01;101295.84;5043831;28;20037;-69
2021/11/25 09:40:28;;;;;;;15.90;4.82;;;;;;;7.12;82.92;101297.50;5045126;28;20032;-69
2021/11/25 09:43:05;;;;;;;14.95;4.70;;;;;;;7.26;82.23;101297.31;5046994;28;20017;-71
2021/11/25 09:45:32;;;;;;;14.10;4.90;;;;;;;7.29;82.63;101294.63;5047070;28;20028;-68
2021/11/25 09:48:02;;;;;;;11.10;4.45;;;;;;;7.37;81.89;101289.31;5045092;28;20108;-69
2021/11/25 09:50:30;;;;;;;17.55;5.07;;;;;;;7.38;82.52;101290.19;5043656;28;20112;-70
2021/11/25 09:52:58;;;;;;;15.35;3.90;;;;;;;7.49;81.90;101288.28;5045413;28;20072;-69
2021/11/25 09:55:23;;;;;;;14.30;4.03;;;;;;;7.56;81.65;101283.81;5046081;28;20024;-69
2021/11/25 09:57:51;;;;;;;15.70;4.93;;;;;;;7.56;81.79;101289.91;5046952;28;20013;-69
2021/11/25 10:00:17;;;;;;;10.00;4.95;;;;;;;7.68;81.57;101293.28;5047432;28;20031;-70
2021/11/25 10:02:42;;;;;;;14.63;4.47;;;;;;;7.82;80.93;101291.31;5047158;28;20025;-71
2021/11/25 10:05:07;;;;;;;9.82;3.28;;;;;;;7.95;80.13;101293.75;5045728;28;20036;-71
2021/11/25 10:07:36;;;;;;;12.95;3.20;;;;;;;8.18;79.95;101298.63;5014602;28;20114;-69
2021/11/25 10:10:27;;;;;;;9.98;2.55;;;;;;;8.27;78.66;101299.34;5008947;28;20082;-69
2021/11/25 10:13:02;;;;;;;11.60;2.78;;;;;;;8.25;79.48;101304.63;5012961;28;20562;-69
2021/11/25 10:15:38;;;;;;;11.27;2.78;;;;;;;8.32;78.64;101303.66;5024623;28;20017;-70
2021/11/25 10:18:32;;;;;;;8.23;1.90;;;;;;;8.50;76.96;101304.22;5022191;28;20491;-70
2021/11/25 10:21:02;;;;;;;13.73;3.20;;;;;;;8.56;76.90;101296.25;5018790;28;20390;-70
2021/11/25 10:23:29;;;;;;;;;;;;;;;8.78;76.80;101298.47;5022204;28;20025;-68
2021/11/25 10:26:02;;;;;;;8.43;1.88;;;;;;;8.87;75.59;101302.69;5007603;28;19917;-68
2021/11/25 10:28:33;;;;;;;13.15;2.00;;;;;;;8.98;75.30;101297.22;5014610;28;20090;-68
2021/11/25 10:31:02;;;;;;;10.98;2.10;;;;;;;8.96;75.50;101299.00;5014929;28;20025;-69
2021/11/25 10:33:32;;;;;;;;;;;;;;;9.06;74.92;101302.34;5023870;28;20044;-68
2021/11/25 10:38:56;;;;;;;8.57;2.15;;;;;;;9.20;75.25;101309.94;5020128;28;20179;-70
2021/11/25 10:41:23;;;;;;;10.65;1.75;;;;;;;9.18;74.79;101309.97;5004375;28;20068;-68
2021/11/25 10:44:08;;;;;;;10.20;1.65;;;;;;;9.38;74.03;101303.44;5002618;28;20484;-68
2021/11/25 10:46:36;;;;;;;6.40;1.98;;;;;;;9.60;70.28;101300.31;5003089;28;20488;-68
2021/11/25 10:49:02;;;;;;;10.00;1.93;;;;;;;9.64;66.31;101298.50;5003505;28;20033;-69
2021/11/25 10:51:29;;;;;;;14.00;2.08;;;;;;;9.67;64.10;101301.06;5021210;28;20032;-68
2021/11/25 10:54:16;;;;;;;9.70;1.92;;;;;;;9.48;61.54;101306.72;5007816;28;20037;-68
2021/11/25 10:56:45;;;;;;;7.38;1.50;;;;;;;9.26;62.33;101304.56;5004767;28;20029;-70
2021/11/25 10:59:14;;;;;;;12.35;1.85;;;;;;;9.04;62.91;101306.75;5005002;28;20068;-70
2021/11/25 11:01:46;;;;;;;11.18;2.10;;;;;;;8.76;62.13;101308.16;5020036;28;20060;-70
2021/11/25 11:04:13;;;;;;;10.45;1.85;;;;;;;8.52;63.78;101312.06;5022200;28;20033;-69
2021/11/25 11:06:40;;;;;;;7.47;1.70;;;;;;;8.51;64.10;101316.44;5014852;28;20079;-70
2021/11/25 11:09:08;;;;;;;9.30;1.40;;;;;;;8.57;64.51;101310.25;5022400;28;20071;-69
2021/11/25 11:11:37;;;;;;;10.52;2.00;;;;;;;8.63;63.99;101318.03;5023765;28;20092;-69
2021/11/25 11:19:12;;;;;;;8.20;1.98;;;;;;;8.70;63.56;101301.25;5021852;28;20041;-70
2021/11/25 11:21:43;;;;;;;10.70;2.05;;;;;;;8.70;63.41;101303.88;5030897;28;20021;-68
2021/11/25 11:24:18;;;;;;;7.70;1.70;;;;;;;8.83;62.60;101311.53;5043724;28;20458;-69
2021/11/25 11:26:46;;;;;;;15.07;2.00;;;;;;;8.75;63.52;101302.91;5033064;28;20060;-69